createdAt,value
2019-02-27T00:01:18.523Z,55.75
2019-02-27T00:20:54.085Z,57.83
2019-02-27T00:23:24.661Z,58.70
2019-02-27T00:25:54.513Z,58.54
2019-02-27T00:28:24.288Z,58.78
2019-02-27T00:30:55.630Z,59.06
2019-02-27T00:33:28.760Z,60.26
2019-02-27T00:36:00.183Z,57.68
2019-02-27T00:38:30.667Z,56.48
2019-02-27T00:41:02.692Z,55.49
2019-02-27T00:43:32.506Z,55.54
2019-02-27T00:46:05.538Z,55.24
2019-02-27T00:48:41.494Z,54.60
2019-02-27T00:51:21.465Z,55.21
2019-02-27T00:53:52.858Z,55.81
2019-02-27T00:56:22.640Z,56.46
2019-02-27T00:58:52.903Z,56.86
2019-02-27T01:01:25.562Z,57.41
2019-02-27T01:04:02.357Z,57.11
2019-02-27T01:06:33.260Z,58.73
2019-02-27T01:09:03.956Z,58.68
2019-02-27T01:11:40.951Z,59.89
2019-02-27T01:14:18.631Z,61.84
2019-02-27T01:16:54.254Z,61.86
2019-02-27T01:19:25.023Z,62.40
2019-02-27T01:22:00.046Z,61.48
2019-02-27T01:24:31.352Z,60.28
2019-02-27T01:27:06.789Z,57.73
2019-02-27T01:29:37.606Z,57.14
2019-02-27T01:32:13.088Z,56.14
2019-02-27T01:34:45.035Z,56.14
2019-02-27T01:37:21.855Z,56.25
2019-02-27T01:39:55.161Z,55.96
2019-02-27T01:42:31.956Z,55.16
2019-02-27T01:45:01.942Z,54.96
2019-02-27T01:47:36.582Z,55.62
2019-02-27T01:50:27.801Z,56.41
2019-02-27T01:52:57.774Z,56.34
2019-02-27T01:55:28.794Z,56.11
2019-02-27T01:57:58.625Z,55.98
2019-02-27T02:00:28.396Z,56.23
2019-02-27T02:03:01.197Z,56.67
2019-02-27T02:05:33.594Z,57.82
2019-02-27T02:08:03.638Z,58.46
2019-02-27T02:10:36.476Z,58.49
2019-02-27T02:13:14.986Z,58.86
2019-02-27T02:16:07.485Z,59.44
2019-02-27T02:22:28.060Z,59.37
2019-02-27T02:25:15.796Z,58.96
2019-02-27T02:28:09.405Z,58.83
2019-02-27T02:30:48.565Z,59.11
2019-02-27T02:33:36.369Z,58.50
2019-02-27T02:36:27.025Z,58.74
2019-02-27T02:39:19.412Z,58.97
2019-02-27T02:42:04.011Z,59.00
2019-02-27T02:45:08.567Z,59.71
2019-02-27T02:47:48.255Z,59.62
2019-02-27T02:50:32.737Z,60.35
2019-02-27T02:53:25.342Z,61.04
2019-02-27T02:56:01.416Z,61.56
2019-02-27T02:58:37.147Z,62.31
2019-02-27T03:01:13.932Z,62.88
2019-02-27T03:03:50.158Z,63.92
2019-02-27T03:06:47.357Z,64.33
2019-02-27T03:09:30.657Z,63.22
2019-02-27T03:12:12.426Z,63.07
2019-02-27T03:14:53.128Z,63.07
2019-02-27T03:17:45.616Z,62.15
2019-02-27T03:20:24.514Z,61.83
2019-02-27T03:23:15.317Z,61.74
2019-02-27T03:26:16.784Z,61.37
2019-02-27T03:29:04.668Z,61.37
2019-02-27T03:31:57.440Z,61.80
2019-02-27T03:34:56.170Z,62.14
2019-02-27T03:37:31.708Z,61.99
2019-02-27T03:40:19.849Z,61.66
2019-02-27T03:43:01.751Z,62.41
2019-02-27T03:45:43.181Z,62.41
2019-02-27T03:48:42.289Z,62.36
2019-02-27T03:51:29.311Z,62.36
2019-02-27T03:54:22.229Z,63.64
2019-02-27T03:57:03.869Z,64.17
2019-02-27T03:59:58.826Z,66.22
2019-02-27T04:02:42.896Z,66.22
2019-02-27T04:05:28.238Z,67.15
2019-02-27T04:08:13.498Z,68.62
2019-02-27T04:10:45.988Z,69.40
2019-02-27T04:13:16.198Z,69.57
2019-02-27T04:15:46.277Z,69.42
2019-02-27T04:18:15.498Z,68.80
2019-02-27T04:20:50.696Z,68.25
2019-02-27T04:23:23.485Z,67.83
2019-02-27T04:25:54.174Z,67.48
2019-02-27T04:28:24.127Z,67.83
2019-02-27T04:30:53.972Z,68.26
2019-02-27T04:33:24.297Z,67.94
2019-02-27T04:35:55.466Z,67.16
2019-02-27T04:38:27.603Z,66.54
2019-02-27T04:40:59.240Z,66.54
2019-02-27T04:43:32.005Z,66.02
2019-02-27T04:46:03.935Z,66.73
2019-02-27T04:48:34.745Z,66.73
2019-02-27T04:51:05.936Z,66.60
2019-02-27T04:53:37.727Z,66.30
2019-02-27T04:56:07.729Z,66.34
2019-02-27T04:58:43.024Z,66.28
2019-02-27T05:01:14.509Z,65.56
2019-02-27T05:04:00.994Z,65.38
2019-02-27T05:06:31.331Z,64.33
2019-02-27T05:09:02.005Z,64.33
2019-02-27T05:11:35.930Z,64.25
2019-02-27T05:14:05.734Z,64.67
2019-02-27T05:16:40.445Z,64.61
2019-02-27T05:19:11.969Z,64.49
2019-02-27T05:21:52.457Z,64.65
2019-02-27T05:24:25.901Z,65.73
2019-02-27T05:27:30.108Z,65.73
2019-02-27T05:30:03.952Z,64.05
2019-02-27T05:32:33.889Z,63.57
2019-02-27T05:35:05.060Z,62.40
2019-02-27T05:37:36.116Z,62.58
2019-02-27T05:40:09.686Z,62.78
2019-02-27T05:42:39.642Z,62.39
2019-02-27T05:45:14.782Z,62.20
2019-02-27T05:47:45.968Z,62.44
2019-02-27T05:50:16.620Z,62.69
2019-02-27T05:52:50.966Z,62.79
2019-02-27T05:55:22.604Z,62.66
2019-02-27T05:57:52.760Z,63.62
2019-02-27T06:00:24.900Z,63.62
2019-02-27T06:03:01.544Z,64.79
2019-02-27T06:05:35.909Z,64.79
2019-02-27T06:08:06.039Z,65.26
2019-02-27T06:10:41.497Z,65.03
2019-02-27T06:13:17.367Z,63.40
2019-02-27T06:15:49.124Z,63.35
2019-02-27T06:18:23.763Z,63.64
2019-02-27T06:20:58.927Z,63.54
2019-02-27T06:23:28.862Z,64.43
2019-02-27T06:25:59.418Z,61.38
2019-02-27T06:28:33.243Z,59.56
2019-02-27T06:31:03.514Z,60.61
2019-02-27T06:33:36.014Z,58.48
2019-02-27T06:36:11.615Z,57.45
2019-02-27T06:38:41.488Z,57.22
2019-02-27T06:41:15.613Z,57.76
2019-02-27T06:43:48.102Z,56.77
2019-02-27T06:46:20.086Z,56.90
2019-02-27T06:48:49.791Z,59.07
2019-02-27T06:51:21.775Z,59.15
2019-02-27T06:53:51.604Z,59.16
2019-02-27T06:56:21.459Z,58.26
2019-02-27T06:59:04.377Z,57.73
2019-02-27T07:01:35.114Z,57.57
2019-02-27T07:04:05.473Z,56.37
2019-02-27T07:06:38.999Z,55.83
2019-02-27T07:09:12.246Z,54.59
2019-02-27T07:11:45.239Z,55.44
2019-02-27T07:14:22.306Z,55.08
2019-02-27T07:17:03.301Z,51.84
2019-02-27T07:19:33.603Z,52.99
2019-02-27T07:22:14.400Z,52.72
2019-02-27T07:24:46.448Z,51.53
2019-02-27T07:27:23.288Z,46.98
2019-02-27T07:29:55.292Z,46.75
2019-02-27T07:32:32.129Z,47.00
2019-02-27T07:35:01.929Z,46.70
2019-02-27T07:37:33.664Z,45.93
2019-02-27T07:40:08.008Z,45.42
2019-02-27T07:42:41.450Z,44.40
2019-02-27T07:45:16.864Z,43.75
2019-02-27T07:47:46.971Z,43.07
2019-02-27T07:50:19.129Z,42.25
2019-02-27T07:52:52.133Z,41.81
2019-02-27T07:55:28.395Z,41.48
2019-02-27T07:57:58.678Z,41.69
2019-02-27T08:00:29.202Z,40.32
2019-02-27T08:03:09.067Z,41.11
2019-02-27T08:05:39.068Z,40.62
2019-02-27T08:08:12.970Z,39.25
2019-02-27T08:10:46.379Z,39.59
2019-02-27T08:13:19.382Z,38.98
2019-02-27T08:15:56.386Z,37.75
2019-02-27T08:18:36.557Z,38.70
2019-02-27T08:21:08.845Z,39.00
2019-02-27T08:23:47.112Z,38.80
2019-02-27T08:26:18.513Z,40.60
2019-02-27T08:31:52.049Z,39.91
2019-02-27T08:34:23.198Z,40.50
2019-02-27T08:37:00.651Z,41.79
2019-02-27T08:39:32.443Z,40.27
2019-02-27T08:42:09.740Z,40.63
2019-02-27T08:44:45.806Z,38.25
2019-02-27T08:47:15.316Z,37.66
2019-02-27T08:49:49.023Z,40.88
2019-02-27T08:52:24.972Z,40.50
2019-02-27T08:54:54.734Z,37.99
2019-02-27T08:57:32.140Z,39.76
2019-02-27T09:00:02.298Z,36.40
2019-02-27T09:02:37.384Z,37.52
2019-02-27T09:05:11.350Z,36.89
2019-02-27T09:07:43.022Z,38.19
2019-02-27T09:10:15.312Z,38.19
2019-02-27T09:12:48.920Z,35.39
2019-02-27T09:15:22.134Z,34.71
2019-02-27T09:17:52.068Z,35.21
2019-02-27T09:20:22.287Z,33.19
2019-02-27T09:22:52.344Z,31.09
2019-02-27T09:25:24.660Z,29.87
2019-02-27T09:27:54.496Z,29.26
2019-02-27T09:30:30.211Z,27.40
2019-02-27T09:33:00.492Z,26.77
2019-02-27T09:35:34.602Z,25.55
2019-02-27T09:38:10.725Z,25.07
2019-02-27T09:40:41.826Z,24.33
2019-02-27T09:43:32.316Z,24.42
2019-02-27T09:46:13.067Z,23.91
2019-02-27T09:49:06.802Z,23.96
2019-02-27T09:51:56.303Z,23.22
2019-02-27T09:54:46.819Z,24.25
2019-02-27T09:57:28.222Z,23.74
2019-02-27T10:00:27.181Z,22.33
2019-02-27T10:03:21.379Z,24.20
2019-02-27T10:05:56.410Z,22.51
2019-02-27T10:08:26.258Z,22.57
2019-02-27T10:10:56.578Z,22.11
2019-02-27T10:13:27.327Z,22.96
2019-02-27T10:16:01.334Z,22.18
2019-02-27T10:18:33.614Z,21.11
2019-02-27T10:21:05.983Z,21.18
2019-02-27T10:23:40.635Z,20.71
2019-02-27T10:26:12.598Z,20.92
2019-02-27T10:28:44.014Z,20.31
2019-02-27T10:31:16.732Z,20.34
2019-02-27T10:33:47.022Z,20.23
2019-02-27T10:36:17.866Z,19.21
2019-02-27T10:38:54.358Z,19.45
2019-02-27T10:41:31.329Z,19.37
2019-02-27T10:44:01.705Z,19.22
2019-02-27T10:46:37.733Z,19.40
2019-02-27T10:49:10.993Z,19.73
2019-02-27T10:51:51.940Z,20.70
2019-02-27T10:54:26.169Z,20.51
2019-02-27T10:57:05.994Z,20.33
2019-02-27T10:59:37.109Z,20.23
2019-02-27T11:02:12.414Z,20.06
2019-02-27T11:04:50.061Z,22.22
2019-02-27T11:07:25.616Z,21.79
2019-02-27T11:09:57.825Z,20.05
2019-02-27T11:12:33.985Z,19.44
2019-02-27T11:15:16.097Z,19.99
2019-02-27T11:17:45.859Z,19.95
2019-02-27T11:20:20.430Z,20.72
2019-02-27T11:22:50.408Z,22.73
2019-02-27T11:25:23.897Z,22.56
2019-02-27T11:27:55.729Z,20.63
2019-02-27T11:30:45.026Z,22.31
2019-02-27T11:33:25.494Z,21.46
2019-02-27T11:35:51.719Z,22.03
2019-02-27T11:38:24.214Z,21.98
2019-02-27T11:40:56.491Z,21.49
2019-02-27T11:43:28.562Z,21.26
2019-02-27T11:45:59.923Z,21.09
2019-02-27T11:48:36.452Z,20.34
2019-02-27T11:51:07.754Z,21.77
2019-02-27T11:53:39.254Z,20.72
2019-02-27T11:56:12.182Z,21.25
2019-02-27T11:58:42.359Z,20.87
2019-02-27T12:01:16.145Z,20.27
2019-02-27T12:03:47.158Z,21.22
2019-02-27T12:06:17.389Z,20.14
2019-02-27T12:08:47.216Z,20.26
2019-02-27T12:11:18.608Z,21.52
2019-02-27T12:13:49.110Z,20.55
2019-02-27T12:16:19.069Z,20.67
2019-02-27T12:18:54.419Z,23.30
2019-02-27T12:21:28.786Z,20.71
2019-02-27T12:23:59.498Z,22.06
2019-02-27T12:26:34.450Z,22.61
2019-02-27T12:29:03.567Z,23.02
2019-02-27T12:31:48.914Z,21.36
2019-02-27T12:34:21.105Z,22.48
2019-02-27T12:36:56.039Z,23.21
2019-02-27T12:39:27.837Z,19.95
2019-02-27T12:42:04.154Z,20.74
2019-02-27T12:44:39.745Z,21.49
2019-02-27T12:47:18.908Z,20.86
2019-02-27T12:49:51.591Z,19.48
2019-02-27T12:52:24.917Z,20.61
2019-02-27T12:54:54.676Z,21.46
2019-02-27T12:57:32.239Z,21.35
2019-02-27T13:00:10.112Z,20.31
2019-02-27T13:02:40.992Z,20.58
2019-02-27T13:05:14.283Z,21.37
2019-02-27T13:07:44.740Z,18.16
2019-02-27T13:10:22.745Z,18.33
2019-02-27T13:12:53.020Z,19.14
2019-02-27T13:15:27.691Z,18.35
2019-02-27T13:18:01.315Z,16.32
2019-02-27T13:20:34.226Z,16.23
2019-02-27T13:23:07.897Z,16.09
2019-02-27T13:25:37.892Z,14.86
2019-02-27T13:28:10.744Z,15.73
2019-02-27T13:30:42.322Z,15.50
2019-02-27T13:33:18.856Z,15.98
2019-02-27T13:35:50.138Z,15.74
2019-02-27T13:38:21.794Z,15.76
2019-02-27T13:40:52.163Z,15.84
2019-02-27T13:43:24.379Z,15.91
2019-02-27T13:45:53.489Z,14.93
2019-02-27T13:48:24.057Z,14.88
2019-02-27T13:50:56.563Z,15.31
2019-02-27T13:53:27.761Z,16.01
2019-02-27T13:56:01.118Z,16.83
2019-02-27T13:58:35.542Z,15.52
2019-02-27T14:01:03.568Z,16.76
2019-02-27T14:03:35.497Z,15.82
2019-02-27T14:06:09.315Z,16.66
2019-02-27T14:08:40.291Z,16.66
2019-02-27T14:11:10.749Z,16.94
2019-02-27T14:13:44.753Z,16.03
2019-02-27T14:16:23.548Z,16.70
2019-02-27T14:18:54.258Z,17.03
2019-02-27T14:21:24.296Z,16.77
2019-02-27T14:23:54.098Z,16.30
2019-02-27T14:26:27.555Z,15.90
2019-02-27T14:29:00.833Z,16.14
2019-02-27T14:31:31.448Z,16.35
2019-02-27T14:34:01.865Z,16.30
2019-02-27T14:36:39.430Z,17.16
2019-02-27T14:39:12.265Z,18.12
2019-02-27T14:41:47.998Z,18.41
2019-02-27T14:44:17.498Z,17.96
2019-02-27T14:46:51.464Z,18.73
2019-02-27T14:49:26.800Z,18.58
2019-02-27T14:52:01.042Z,18.87
2019-02-27T14:54:31.506Z,18.72
2019-02-27T14:57:09.373Z,19.31
2019-02-27T14:59:39.982Z,17.23
2019-02-27T15:02:10.206Z,17.75
2019-02-27T15:04:49.696Z,17.44
2019-02-27T15:07:23.158Z,17.73
2019-02-27T15:09:53.598Z,17.92
2019-02-27T15:12:27.767Z,17.77
2019-02-27T15:15:03.488Z,17.30
2019-02-27T15:17:41.705Z,18.03
2019-02-27T15:20:17.178Z,17.71
2019-02-27T15:22:48.407Z,17.83
2019-02-27T15:25:20.496Z,17.66
2019-02-27T15:27:51.017Z,19.74
2019-02-27T15:30:32.704Z,19.30
2019-02-27T15:33:05.360Z,18.06
2019-02-27T15:35:36.300Z,20.40
2019-02-27T15:38:11.171Z,20.39
2019-02-27T15:40:40.452Z,19.40
2019-02-27T15:43:16.797Z,21.42
2019-02-27T15:45:48.055Z,21.10
2019-02-27T15:48:20.283Z,21.15
2019-02-27T15:50:58.214Z,20.40
2019-02-27T15:53:31.955Z,20.96
2019-02-27T15:56:08.692Z,21.10
2019-02-27T15:58:38.821Z,21.56
2019-02-27T16:01:11.693Z,21.69
2019-02-27T16:03:46.359Z,21.75
2019-02-27T16:06:16.240Z,21.83
2019-02-27T16:08:46.052Z,22.09
2019-02-27T16:11:16.543Z,22.48
2019-02-27T16:13:49.007Z,22.39
2019-02-27T16:16:23.336Z,22.92
2019-02-27T16:18:58.317Z,23.17
2019-02-27T16:21:30.881Z,23.22
2019-02-27T16:24:10.252Z,22.44
2019-02-27T16:26:40.721Z,22.39
2019-02-27T16:29:12.936Z,22.73
2019-02-27T16:31:42.741Z,22.24
2019-02-27T16:34:14.757Z,22.17
2019-02-27T16:36:50.064Z,22.34
2019-02-27T16:39:22.449Z,22.71
2019-02-27T16:42:01.084Z,23.43
2019-02-27T16:44:34.400Z,23.33
2019-02-27T16:47:10.664Z,23.81
2019-02-27T16:49:47.198Z,23.16
2019-02-27T16:52:19.504Z,23.19
2019-02-27T16:54:50.797Z,23.26
2019-02-27T16:57:29.277Z,23.67
2019-02-27T17:00:00.436Z,23.95
2019-02-27T17:02:32.039Z,23.04
2019-02-27T17:05:09.679Z,23.14
2019-02-27T17:07:40.209Z,23.31
2019-02-27T17:10:17.765Z,23.10
2019-02-27T17:12:49.321Z,22.95
2019-02-27T17:15:19.861Z,23.16
2019-02-27T17:20:49.872Z,23.86
2019-02-27T17:23:22.243Z,23.71
2019-02-27T17:25:55.690Z,23.70
2019-02-27T17:28:28.314Z,23.62
2019-02-27T17:31:01.911Z,24.03
2019-02-27T17:33:35.186Z,24.17
2019-02-27T17:36:08.154Z,24.56
2019-02-27T17:38:40.424Z,24.92
2019-02-27T17:41:11.007Z,25.31
2019-02-27T17:43:45.803Z,25.75
2019-02-27T17:46:20.747Z,25.90
2019-02-27T17:48:56.369Z,26.17
2019-02-27T17:51:26.160Z,26.24
2019-02-27T17:54:00.239Z,26.48
2019-02-27T17:56:34.498Z,26.71
2019-02-27T17:59:09.381Z,26.78
2019-02-27T18:01:41.229Z,27.13
2019-02-27T18:04:14.585Z,27.34
2019-02-27T18:06:59.820Z,27.42
2019-02-27T18:09:28.027Z,28.25
2019-02-27T18:12:07.618Z,28.35
2019-02-27T18:14:43.868Z,28.50
2019-02-27T18:17:20.000Z,28.77
2019-02-27T18:19:50.988Z,29.03
2019-02-27T18:22:28.621Z,28.99
2019-02-27T18:25:08.246Z,29.04
2019-02-27T18:27:58.507Z,29.10
2019-02-27T18:30:38.045Z,28.80
2019-02-27T18:33:22.296Z,29.05
2019-02-27T18:36:04.466Z,29.97
2019-02-27T18:38:36.555Z,29.53
2019-02-27T18:41:26.641Z,29.08
2019-02-27T18:44:08.078Z,29.46
2019-02-27T18:46:49.824Z,29.42
2019-02-27T18:49:42.400Z,29.14
2019-02-27T18:52:21.591Z,29.53
2019-02-27T18:55:02.719Z,29.95
2019-02-27T18:57:52.652Z,29.38
2019-02-27T19:00:37.068Z,29.71
2019-02-27T19:03:32.342Z,29.70
2019-02-27T19:06:30.411Z,30.09
2019-02-27T19:09:01.973Z,30.58
2019-02-27T19:11:55.160Z,30.70
2019-02-27T19:14:30.428Z,31.15
2019-02-27T19:17:07.379Z,31.24
2019-02-27T19:19:40.434Z,31.54
2019-02-27T19:22:13.819Z,31.82
2019-02-27T19:24:50.358Z,31.69
2019-02-27T19:27:27.841Z,32.02
2019-02-27T19:29:57.622Z,32.39
2019-02-27T19:32:33.705Z,32.86
2019-02-27T19:35:07.478Z,32.96
2019-02-27T19:37:44.565Z,32.90
2019-02-27T19:40:19.155Z,32.88
2019-02-27T19:42:56.337Z,33.23
2019-02-27T19:45:26.376Z,33.50
2019-02-27T19:47:56.475Z,33.40
2019-02-27T19:50:29.900Z,33.58
2019-02-27T19:53:06.836Z,34.06
2019-02-27T19:55:36.587Z,33.52
2019-02-27T19:58:08.099Z,33.65
2019-02-27T20:00:48.299Z,33.27
2019-02-27T20:03:17.822Z,33.65
2019-02-27T20:05:50.585Z,34.35
2019-02-27T20:08:22.070Z,34.73
2019-02-27T20:10:52.106Z,33.95
2019-02-27T20:13:24.753Z,34.37
2019-02-27T20:15:53.514Z,35.41
2019-02-27T20:18:26.950Z,34.99
2019-02-27T20:21:01.577Z,34.97
2019-02-27T20:23:34.360Z,34.75
2019-02-27T20:26:13.793Z,33.58
2019-02-27T20:28:37.798Z,32.45
2019-02-27T20:31:09.008Z,31.31
2019-02-27T20:33:38.867Z,31.06
2019-02-27T20:36:11.223Z,31.08
2019-02-27T20:38:42.449Z,31.29
2019-02-27T20:41:15.088Z,31.40
2019-02-27T20:43:52.827Z,31.92
2019-02-27T20:46:24.592Z,32.81
2019-02-27T20:48:54.241Z,34.11
2019-02-27T20:51:25.463Z,34.91
2019-02-27T20:54:02.736Z,36.83
2019-02-27T20:56:36.080Z,36.90
2019-02-27T20:59:06.968Z,37.92
2019-02-27T21:01:36.811Z,37.63
2019-02-27T21:04:08.459Z,38.24
2019-02-27T21:06:40.963Z,37.87
2019-02-27T21:09:11.930Z,37.49
2019-02-27T21:11:49.665Z,37.85
2019-02-27T21:14:23.641Z,38.72
2019-02-27T21:16:59.288Z,39.02
2019-02-27T21:19:33.836Z,38.81
2019-02-27T21:22:09.840Z,39.95
2019-02-27T21:24:41.430Z,39.44
2019-02-27T21:27:17.160Z,39.24
2019-02-27T21:29:48.599Z,40.10
2019-02-27T21:32:22.830Z,39.58
2019-02-27T21:34:55.041Z,39.19
2019-02-27T21:37:31.140Z,39.19
2019-02-27T21:40:03.341Z,39.74
2019-02-27T21:42:36.330Z,40.64
2019-02-27T21:45:10.076Z,41.03
2019-02-27T21:47:51.818Z,41.38
2019-02-27T21:50:25.731Z,41.19
2019-02-27T21:53:03.344Z,41.47
2019-02-27T21:55:33.387Z,41.74
2019-02-27T21:58:19.939Z,41.81
2019-02-27T22:00:44.920Z,41.68
2019-02-27T22:03:18.424Z,41.88
2019-02-27T22:05:52.987Z,42.51
2019-02-27T22:08:25.143Z,42.92
2019-02-27T22:10:55.039Z,42.65
2019-02-27T22:13:30.278Z,42.51
2019-02-27T22:16:02.932Z,42.52
2019-02-27T22:18:33.215Z,42.39
2019-02-27T22:21:04.226Z,42.07
2019-02-27T22:23:36.001Z,41.96
2019-02-27T22:26:10.789Z,41.61
2019-02-27T22:28:44.851Z,41.17
2019-02-27T22:31:18.810Z,41.60
2019-02-27T22:33:53.099Z,42.00
2019-02-27T22:36:29.984Z,42.37
2019-02-27T22:39:02.322Z,43.01
2019-02-27T22:41:33.624Z,44.46
2019-02-27T22:44:03.765Z,44.16
2019-02-27T22:46:33.518Z,44.89
2019-02-27T22:49:06.633Z,45.35
2019-02-27T22:51:39.376Z,45.67
2019-02-27T22:54:10.752Z,45.75
2019-02-27T22:56:40.568Z,45.57
2019-02-27T22:59:12.852Z,45.93
2019-02-27T23:01:53.171Z,45.31
2019-02-27T23:04:29.870Z,45.22
2019-02-27T23:06:58.406Z,45.42
2019-02-27T23:09:28.515Z,45.27
2019-02-27T23:12:03.890Z,44.76
2019-02-27T23:14:34.257Z,44.39
2019-02-27T23:17:07.760Z,44.19
2019-02-27T23:19:46.034Z,44.00
2019-02-27T23:22:15.404Z,44.29
2019-02-27T23:24:49.791Z,44.79
2019-02-27T23:27:26.022Z,44.66
2019-02-27T23:29:54.375Z,44.76
2019-02-27T23:32:30.667Z,44.60
2019-02-27T23:35:01.663Z,44.66
2019-02-27T23:37:38.351Z,44.76
2019-02-27T23:40:09.252Z,44.69
2019-02-27T23:42:40.686Z,47.92
2019-02-27T23:45:12.658Z,48.17
2019-02-27T23:47:45.365Z,47.47
2019-02-27T23:50:20.909Z,46.32
2019-02-27T23:52:53.280Z,45.23
2019-02-27T23:55:24.692Z,45.35
2019-02-27T23:57:57.905Z,45.15
